createdAt,value
2022-08-23T00:02:12.847Z,100735.91
2022-08-23T00:04:55.772Z,100733.16
2022-08-23T00:07:40.888Z,100729.34
2022-08-23T00:10:09.666Z,100726.59
2022-08-23T00:12:36.375Z,100729.59
2022-08-23T00:15:04.420Z,100728.50
2022-08-23T00:17:34.766Z,100723.25
2022-08-23T00:20:06.762Z,100724.66
2022-08-23T00:22:33.489Z,100721.09
2022-08-23T00:24:59.967Z,100718.38
2022-08-23T00:27:26.966Z,100718.38
2022-08-23T00:29:55.643Z,100714.56
2022-08-23T00:32:33.932Z,100714.31
2022-08-23T00:35:01.589Z,100711.56
2022-08-23T00:37:29.861Z,100717.88
2022-08-23T00:39:56.330Z,100715.13
2022-08-23T00:43:12.395Z,100707.72
2022-08-23T00:46:18.637Z,100716.81
2022-08-23T00:48:46.219Z,100712.66
2022-08-23T00:51:18.908Z,100709.63
2022-08-23T00:53:52.604Z,100706.91
2022-08-23T00:56:22.652Z,100707.16
2022-08-23T00:58:49.589Z,100711.81
2022-08-23T01:01:17.827Z,100706.56
2022-08-23T01:03:49.747Z,100712.06
2022-08-23T01:06:34.471Z,100705.75
2022-08-23T01:09:07.687Z,100709.56
2022-08-23T01:11:38.346Z,100707.91
2022-08-23T01:14:15.106Z,100716.34
2022-08-23T01:16:49.530Z,100710.56
2022-08-23T01:19:25.141Z,100704.47
2022-08-23T01:22:12.927Z,100701.16
2022-08-23T01:24:59.793Z,100706.56
2022-08-23T01:27:28.101Z,100695.50
2022-08-23T01:29:54.556Z,100701.47
2022-08-23T01:32:21.381Z,100698.38
2022-08-23T01:34:51.847Z,100703.53
2022-08-23T01:37:20.275Z,100702.34
2022-08-23T01:39:46.803Z,100702.84
2022-08-23T01:42:13.309Z,100693.44
2022-08-23T01:44:39.797Z,100698.34
2022-08-23T01:47:07.758Z,100698.78
2022-08-23T01:49:34.876Z,100694.63
2022-08-23T01:52:01.389Z,100690.50
2022-08-23T01:54:27.866Z,100696.22
2022-08-23T01:56:54.405Z,100696.44
2022-08-23T01:59:20.922Z,100692.28
2022-08-23T02:01:47.687Z,100701.59
2022-08-23T02:04:14.237Z,100693.59
2022-08-23T02:06:40.960Z,100693.88
2022-08-23T02:09:17.435Z,100694.91
2022-08-23T02:11:44.825Z,100705.03
2022-08-23T02:14:14.642Z,100708.88
2022-08-23T02:17:03.114Z,100695.19
2022-08-23T02:19:32.382Z,100708.28
2022-08-23T02:21:58.888Z,100714.84
2022-08-23T02:24:26.326Z,100706.84
2022-08-23T02:26:57.042Z,100713.41
2022-08-23T02:29:25.339Z,100709.00
2022-08-23T02:31:53.174Z,100716.38
2022-08-23T02:34:20.064Z,100707.56
2022-08-23T02:36:47.502Z,100714.13
2022-08-23T02:39:16.701Z,100711.63
2022-08-23T02:41:43.999Z,100714.63
2022-08-23T02:44:11.159Z,100717.59
2022-08-23T02:46:38.669Z,100713.44
2022-08-23T02:49:05.313Z,100714.53
2022-08-23T02:51:32.870Z,100713.94
2022-08-23T02:53:59.419Z,100715.00
2022-08-23T02:56:25.851Z,100708.13
2022-08-23T02:58:54.488Z,100714.91
2022-08-23T03:01:30.511Z,100713.22
2022-08-23T03:03:58.361Z,100715.63
2022-08-23T03:06:26.514Z,100715.00
2022-08-23T03:08:54.782Z,100711.69
2022-08-23T03:11:22.001Z,100711.34
2022-08-23T03:13:49.171Z,100717.06
2022-08-23T03:16:16.295Z,100713.97
2022-08-23T03:18:42.762Z,100716.09
2022-08-23T03:21:09.987Z,100716.59
2022-08-23T03:23:37.403Z,100713.25
2022-08-23T03:26:06.318Z,100724.69
2022-08-23T03:28:34.942Z,100716.91
2022-08-23T03:31:01.519Z,100722.88
2022-08-23T03:33:28.097Z,100720.63
2022-08-23T03:35:59.607Z,100730.75
2022-08-23T03:38:26.094Z,100727.41
2022-08-23T03:40:53.973Z,100722.41
2022-08-23T03:43:21.159Z,100734.66
2022-08-23T03:45:47.646Z,100726.69
2022-08-23T03:48:14.090Z,100730.50
2022-08-23T03:50:40.541Z,100726.06
2022-08-23T03:53:07.217Z,100728.25
2022-08-23T03:55:38.547Z,100731.19
2022-08-23T03:58:09.523Z,100729.53
2022-08-23T04:00:36.005Z,100733.34
2022-08-23T04:03:03.268Z,100737.16
2022-08-23T04:05:29.790Z,100742.84
2022-08-23T04:07:56.286Z,100741.19
2022-08-23T04:10:22.754Z,100738.69
2022-08-23T04:12:50.199Z,100747.97
2022-08-23T04:15:18.591Z,100754.47
2022-08-23T04:17:45.046Z,100744.63
2022-08-23T04:20:11.727Z,100745.72
2022-08-23T04:22:38.333Z,100752.22
2022-08-23T04:25:05.418Z,100749.75
2022-08-23T04:27:52.036Z,100747.00
2022-08-23T04:30:20.101Z,100754.34
2022-08-23T04:32:47.711Z,100750.22
2022-08-23T04:35:15.132Z,100754.84
2022-08-23T04:37:41.951Z,100752.09
2022-08-23T04:40:28.024Z,100759.47
2022-08-23T04:42:54.485Z,100755.09
2022-08-23T04:45:20.919Z,100757.00
2022-08-23T04:47:47.572Z,100758.03
2022-08-23T04:50:14.026Z,100759.13
2022-08-23T04:52:41.177Z,100764.59
2022-08-23T04:55:07.835Z,100771.72
2022-08-23T04:57:35.225Z,100765.19
2022-08-23T05:00:02.003Z,100778.88
2022-08-23T05:02:28.411Z,100773.41
2022-08-23T05:04:54.862Z,100775.88
2022-08-23T05:07:21.653Z,100781.97
2022-08-23T05:10:10.341Z,100778.53
2022-08-23T05:12:36.936Z,100781.59
2022-08-23T05:15:04.339Z,100785.31
2022-08-23T05:17:30.944Z,100784.59
2022-08-23T05:19:57.378Z,100793.75
2022-08-23T05:22:24.133Z,100788.41
2022-08-23T05:24:50.566Z,100799.00
2022-08-23T05:27:17.041Z,100797.50
2022-08-23T05:29:43.547Z,100802.84
2022-08-23T05:32:10.675Z,100800.81
2022-08-23T05:34:37.481Z,100796.31
2022-08-23T05:37:03.915Z,100799.97
2022-08-23T05:39:36.196Z,100803.44
2022-08-23T05:42:04.142Z,100804.38
2022-08-23T05:44:30.641Z,100787.84
2022-08-23T05:47:04.321Z,100804.13
2022-08-23T05:49:37.226Z,100801.72
2022-08-23T05:52:06.210Z,100805.44
2022-08-23T05:54:33.398Z,100805.78
2022-08-23T05:56:59.882Z,100806.94
2022-08-23T05:59:26.402Z,100817.22
2022-08-23T06:01:52.864Z,100816.50
2022-08-23T06:04:19.862Z,100821.25
2022-08-23T06:06:46.299Z,100821.34
2022-08-23T06:09:15.653Z,100818.94
2022-08-23T06:11:44.684Z,100820.97
2022-08-23T06:14:11.696Z,100826.56
2022-08-23T06:16:42.141Z,100829.63
2022-08-23T06:19:09.454Z,100835.44
2022-08-23T06:21:37.177Z,100831.16
2022-08-23T06:24:04.057Z,100834.00
2022-08-23T06:26:38.227Z,100829.72
2022-08-23T06:29:08.947Z,100839.09
2022-08-23T06:31:46.921Z,100841.94
2022-08-23T06:34:26.920Z,100838.47
2022-08-23T06:36:56.140Z,100834.13
2022-08-23T06:39:26.486Z,100833.41
2022-08-23T06:41:53.492Z,100829.97
2022-08-23T06:44:20.486Z,100831.97
2022-08-23T06:46:48.756Z,100841.13
2022-08-23T06:49:16.238Z,100848.13
2022-08-23T06:51:48.125Z,100847.13
2022-08-23T06:54:16.180Z,100840.63
2022-08-23T06:56:43.897Z,100842.94
2022-08-23T06:59:11.691Z,100849.13
2022-08-23T07:01:46.828Z,100854.19
2022-08-23T07:04:16.447Z,100850.47
2022-08-23T07:06:43.806Z,100846.44
2022-08-23T07:09:10.318Z,100847.72
2022-08-23T07:11:36.820Z,100846.47
2022-08-23T07:14:07.051Z,100847.69
2022-08-23T07:16:36.974Z,100857.41
2022-08-23T07:19:03.940Z,100851.75
2022-08-23T07:21:30.521Z,100848.31
2022-08-23T07:23:57.026Z,100853.63
2022-08-23T07:26:24.238Z,100857.59
2022-08-23T07:28:51.254Z,100861.00
2022-08-23T07:31:20.493Z,100854.22
2022-08-23T07:33:48.195Z,100856.81
2022-08-23T07:36:16.821Z,100860.44
2022-08-23T07:38:45.470Z,100858.56
2022-08-23T07:41:13.194Z,100853.97
2022-08-23T07:43:39.902Z,100860.34
2022-08-23T07:46:08.559Z,100863.97
2022-08-23T07:48:52.936Z,100862.16
2022-08-23T07:51:20.601Z,100856.41
2022-08-23T07:53:47.488Z,100860.88
2022-08-23T07:56:16.061Z,100870.63
2022-08-23T07:58:42.539Z,100869.59
2022-08-23T08:01:19.356Z,100876.56
2022-08-23T08:03:47.970Z,100879.91
2022-08-23T08:06:21.622Z,100874.19
2022-08-23T08:08:48.852Z,100878.41
2022-08-23T08:11:20.588Z,100872.41
2022-08-23T08:13:48.871Z,100876.03
2022-08-23T08:16:27.446Z,100872.78
2022-08-23T08:18:56.127Z,100875.59
2022-08-23T08:21:22.711Z,100873.47
2022-08-23T08:23:49.940Z,100876.78
2022-08-23T08:26:16.839Z,100879.59
2022-08-23T08:28:49.566Z,100873.59
2022-08-23T08:31:16.394Z,100879.69
2022-08-23T08:33:42.889Z,100880.28
2022-08-23T08:36:28.244Z,100880.63
2022-08-23T08:38:58.743Z,100880.38
2022-08-23T08:42:03.969Z,100878.53
2022-08-23T08:44:42.005Z,100883.28
2022-08-23T08:47:19.099Z,100876.69
2022-08-23T08:50:16.560Z,100877.78
2022-08-23T08:52:50.752Z,100880.03
2022-08-23T08:55:31.733Z,100875.38
2022-08-23T08:57:59.962Z,100870.41
2022-08-23T09:00:37.823Z,100873.50
2022-08-23T09:03:14.420Z,100871.88
2022-08-23T09:06:00.107Z,100876.59
2022-08-23T09:08:52.081Z,100875.78
2022-08-23T09:11:28.987Z,100878.00
2022-08-23T09:13:55.926Z,100882.41
2022-08-23T09:16:53.161Z,100881.03
2022-08-23T09:19:22.652Z,100882.69
2022-08-23T09:21:58.158Z,100875.00
2022-08-23T09:24:25.433Z,100878.56
2022-08-23T09:26:53.912Z,100878.56
2022-08-23T09:29:25.944Z,100872.78
2022-08-23T09:32:02.033Z,100872.22
2022-08-23T09:34:35.180Z,100875.50
2022-08-23T09:37:09.855Z,100874.94
2022-08-23T09:39:39.739Z,100870.25
2022-08-23T09:42:36.465Z,100865.78
2022-08-23T09:45:33.130Z,100872.44
2022-08-23T09:48:02.260Z,100873.25
2022-08-23T09:50:39.239Z,100869.06
2022-08-23T09:53:15.011Z,100868.47
2022-08-23T09:55:42.830Z,100861.22
2022-08-23T09:58:32.205Z,100855.94
2022-08-23T10:01:18.422Z,100867.25
2022-08-23T10:03:46.262Z,100867.25
2022-08-23T10:06:31.083Z,100865.56
2022-08-23T10:09:00.965Z,100862.47
2022-08-23T10:11:31.907Z,100862.16
2022-08-23T10:13:58.317Z,100854.66
2022-08-23T10:16:39.514Z,100858.75
2022-08-23T10:19:13.449Z,100848.47
2022-08-23T10:21:53.223Z,100852.28
2022-08-23T10:24:44.585Z,100852.47
2022-08-23T10:28:08.166Z,100851.91
2022-08-23T10:31:07.124Z,100854.28
2022-08-23T10:33:50.101Z,100854.47
2022-08-23T10:36:40.951Z,100851.38
2022-08-23T10:39:18.747Z,100850.47
2022-08-23T10:42:12.170Z,100847.06
2022-08-23T10:44:58.788Z,100841.19
2022-08-23T10:47:28.214Z,100836.41
2022-08-23T10:49:58.169Z,100840.47
2022-08-23T10:52:33.616Z,100839.00
2022-08-23T10:55:16.927Z,100840.59
2022-08-23T10:57:46.851Z,100839.97
2022-08-23T11:00:23.173Z,100840.41
2022-08-23T11:02:50.749Z,100836.75
2022-08-23T11:05:33.534Z,100838.06
2022-08-23T11:08:05.018Z,100838.53
2022-08-23T11:10:33.771Z,100836.19
2022-08-23T11:13:07.786Z,100832.78
2022-08-23T11:15:45.128Z,100837.94
2022-08-23T11:18:38.658Z,100829.25
2022-08-23T11:21:17.330Z,100827.50
2022-08-23T11:23:59.225Z,100825.47
2022-08-23T11:26:31.255Z,100821.28
2022-08-23T11:29:23.413Z,100821.75
2022-08-23T11:32:08.456Z,100814.50
2022-08-23T11:34:49.918Z,100817.41
2022-08-23T11:37:19.135Z,100820.91
2022-08-23T11:39:57.989Z,100811.88
2022-08-23T11:42:35.122Z,100812.31
2022-08-23T11:45:03.967Z,100819.94
2022-08-23T11:47:42.191Z,100827.31
2022-08-23T11:50:28.006Z,100818.28
2022-08-23T11:53:13.956Z,100814.78
2022-08-23T11:55:56.217Z,100812.94
2022-08-23T11:58:28.029Z,100813.88
2022-08-23T12:01:10.147Z,100814.81
2022-08-23T12:04:09.851Z,100812.75
2022-08-23T12:06:39.127Z,100807.94
2022-08-23T12:09:25.393Z,100813.09
2022-08-23T12:11:55.062Z,100806.91
2022-08-23T12:14:30.710Z,100804.00
2022-08-23T12:16:58.618Z,100804.41
2022-08-23T12:19:52.059Z,100800.09
2022-08-23T12:22:23.980Z,100805.53
2022-08-23T12:25:00.922Z,100801.31
2022-08-23T12:27:39.166Z,100808.72
2022-08-23T12:30:13.681Z,100795.28
2022-08-23T12:32:55.228Z,100808.28
2022-08-23T12:35:52.147Z,100799.03
2022-08-23T12:38:53.860Z,100794.47
2022-08-23T12:41:32.389Z,100803.53
2022-08-23T12:44:06.131Z,100814.53
2022-08-23T12:46:40.038Z,100800.84
2022-08-23T12:49:10.539Z,100803.81
2022-08-23T12:51:50.188Z,100803.16
2022-08-23T12:54:20.581Z,100808.09
2022-08-23T12:56:53.818Z,100797.47
2022-08-23T12:59:35.508Z,100796.84
2022-08-23T13:02:11.802Z,100803.75
2022-08-23T13:04:40.201Z,100800.66
2022-08-23T13:07:10.844Z,100798.03
2022-08-23T13:09:40.789Z,100794.31
2022-08-23T13:12:09.485Z,100795.03
2022-08-23T13:14:50.715Z,100786.25
2022-08-23T13:17:19.136Z,100779.69
2022-08-23T13:19:48.247Z,100784.31
2022-08-23T13:22:23.680Z,100792.56
2022-08-23T13:25:24.777Z,100782.94
2022-08-23T13:27:45.422Z,100787.22
2022-08-23T13:30:15.650Z,100792.66
2022-08-23T13:32:46.701Z,100789.53
2022-08-23T13:35:31.153Z,100777.25
2022-08-23T13:38:06.746Z,100774.97
2022-08-23T13:40:58.098Z,100772.38
2022-08-23T13:43:44.805Z,100784.75
2022-08-23T13:46:14.568Z,100780.16
2022-08-23T13:49:03.042Z,100775.28
2022-08-23T13:51:40.192Z,100765.09
2022-08-23T13:54:09.534Z,100773.81
2022-08-23T13:56:44.264Z,100767.75
2022-08-23T13:59:31.775Z,100757.59
2022-08-23T14:02:06.131Z,100760.91
2022-08-23T14:04:33.211Z,100760.06
2022-08-23T14:06:59.867Z,100762.53
2022-08-23T14:09:26.554Z,100765.84
2022-08-23T14:11:57.686Z,100762.69
2022-08-23T14:14:25.003Z,100763.22
2022-08-23T14:16:54.197Z,100768.47
2022-08-23T14:22:07.174Z,100764.09
2022-08-23T14:24:33.627Z,100763.94
2022-08-23T14:27:00.757Z,100764.41
2022-08-23T14:29:28.287Z,100768.53
2022-08-23T14:31:56.359Z,100774.63
2022-08-23T14:34:22.875Z,100767.91
2022-08-23T14:39:37.987Z,100770.34
2022-08-23T14:42:05.767Z,100769.84
2022-08-23T14:44:35.852Z,100766.06
2022-08-23T14:47:02.714Z,100773.13
2022-08-23T14:49:29.126Z,100765.06
2022-08-23T14:51:55.605Z,100758.16
2022-08-23T14:54:24.898Z,100766.03
2022-08-23T14:56:53.289Z,100760.28
2022-08-23T14:59:20.421Z,100759.75
2022-08-23T15:01:49.266Z,100769.28
2022-08-23T15:04:18.794Z,100762.91
2022-08-23T15:07:07.018Z,100764.38
2022-08-23T15:09:33.433Z,100767.66
2022-08-23T15:14:46.640Z,100767.16
2022-08-23T15:17:13.915Z,100763.34
2022-08-23T15:19:40.578Z,100758.44
2022-08-23T15:22:18.538Z,100755.13
2022-08-23T15:24:48.880Z,100763.50
2022-08-23T15:27:15.535Z,100753.16
2022-08-23T15:29:42.001Z,100760.06
2022-08-23T15:32:10.146Z,100750.56
2022-08-23T15:34:40.020Z,100756.97
2022-08-23T15:37:12.029Z,100757.78
2022-08-23T15:39:38.512Z,100748.91
2022-08-23T15:42:05.194Z,100754.16
2022-08-23T15:44:31.698Z,100750.56
2022-08-23T15:46:58.183Z,100758.44
2022-08-23T15:49:27.876Z,100752.69
2022-08-23T15:51:54.303Z,100748.06
2022-08-23T15:54:21.291Z,100752.31
2022-08-23T15:56:50.313Z,100754.94
2022-08-23T15:59:19.106Z,100752.78
2022-08-23T16:01:48.141Z,100757.53
2022-08-23T16:04:14.598Z,100757.22
2022-08-23T16:06:41.347Z,100755.78
2022-08-23T16:09:16.537Z,100753.66
2022-08-23T16:11:43.503Z,100742.34
2022-08-23T16:14:10.599Z,100749.91
2022-08-23T16:16:39.642Z,100743.25
2022-08-23T16:19:07.168Z,100737.66
2022-08-23T16:21:36.256Z,100737.84
2022-08-23T16:24:03.090Z,100737.69
2022-08-23T16:26:35.283Z,100729.50
2022-08-23T16:29:04.239Z,100734.91
2022-08-23T16:31:37.658Z,100731.94
2022-08-23T16:34:09.249Z,100730.59
2022-08-23T16:36:36.367Z,100736.84
2022-08-23T16:39:03.630Z,100731.72
2022-08-23T16:41:30.116Z,100732.16
2022-08-23T16:43:56.602Z,100727.88
2022-08-23T16:46:24.096Z,100731.47
2022-08-23T16:48:50.794Z,100733.41
2022-08-23T16:51:17.878Z,100733.34
2022-08-23T16:53:44.615Z,100731.31
2022-08-23T16:56:22.144Z,100740.47
2022-08-23T16:58:48.731Z,100738.34
2022-08-23T17:01:19.628Z,100747.03
2022-08-23T17:03:46.410Z,100737.63
2022-08-23T17:06:12.870Z,100730.53
2022-08-23T17:08:39.514Z,100734.63
2022-08-23T17:11:09.920Z,100735.91
2022-08-23T17:13:36.450Z,100738.53
2022-08-23T17:16:04.138Z,100733.91
2022-08-23T17:18:31.265Z,100737.63
2022-08-23T17:20:58.010Z,100740.22
2022-08-23T17:23:24.554Z,100730.81
2022-08-23T17:25:51.092Z,100744.13
2022-08-23T17:28:17.822Z,100745.44
2022-08-23T17:30:44.398Z,100743.13
2022-08-23T17:33:10.967Z,100754.81
2022-08-23T17:35:39.139Z,100755.28
2022-08-23T17:38:06.591Z,100756.94
2022-08-23T17:40:39.762Z,100754.97
2022-08-23T17:43:06.835Z,100753.66
2022-08-23T17:45:42.630Z,100758.28
2022-08-23T17:48:10.851Z,100762.09
2022-08-23T17:50:38.138Z,100776.66
2022-08-23T17:53:05.406Z,100776.72
2022-08-23T17:55:33.782Z,100781.03
2022-08-23T17:58:04.185Z,100777.34
2022-08-23T18:00:33.305Z,100787.44
2022-08-23T18:03:00.021Z,100793.44
2022-08-23T18:05:29.400Z,100789.41
2022-08-23T18:07:55.926Z,100796.84
2022-08-23T18:10:23.400Z,100791.44
2022-08-23T18:12:49.842Z,100796.38
2022-08-23T18:15:17.434Z,100805.75
2022-08-23T18:17:44.931Z,100801.41
2022-08-23T18:20:12.245Z,100801.19
2022-08-23T18:22:40.061Z,100807.97
2022-08-23T18:25:08.934Z,100810.53
2022-08-23T18:27:54.869Z,100820.84
2022-08-23T18:30:21.682Z,100821.19
2022-08-23T18:32:48.182Z,100825.28
2022-08-23T18:35:15.015Z,100828.56
2022-08-23T18:37:41.946Z,100828.72
2022-08-23T18:40:09.845Z,100826.88
2022-08-23T18:42:37.563Z,100829.16
2022-08-23T18:45:05.839Z,100831.75
2022-08-23T18:47:32.910Z,100836.75
2022-08-23T18:49:59.542Z,100837.34
2022-08-23T18:52:27.603Z,100842.06
2022-08-23T18:54:57.546Z,100837.06
2022-08-23T18:57:24.031Z,100852.03
2022-08-23T18:59:50.534Z,100841.19
2022-08-23T19:02:17.670Z,100855.00
2022-08-23T19:04:45.144Z,100854.06
2022-08-23T19:07:12.458Z,100858.44
2022-08-23T19:09:38.929Z,100862.47
2022-08-23T19:12:06.373Z,100870.09
2022-08-23T19:14:35.657Z,100868.59
2022-08-23T19:17:08.066Z,100874.50
2022-08-23T19:19:36.567Z,100873.31
2022-08-23T19:22:03.723Z,100871.75
2022-08-23T19:24:30.288Z,100874.13
2022-08-23T19:26:56.883Z,100880.84
2022-08-23T19:29:23.544Z,100880.09
2022-08-23T19:31:50.299Z,100886.88
2022-08-23T19:34:19.366Z,100886.94
2022-08-23T19:37:00.339Z,100888.72
2022-08-23T19:39:28.489Z,100889.59
2022-08-23T19:41:55.205Z,100882.97
2022-08-23T19:44:22.067Z,100888.03
2022-08-23T19:46:48.843Z,100883.94
2022-08-23T19:49:15.829Z,100889.78
2022-08-23T19:51:43.644Z,100894.81
2022-08-23T19:54:12.521Z,100894.31
2022-08-23T19:56:49.079Z,100904.28
2022-08-23T19:59:20.399Z,100906.25
2022-08-23T20:01:49.676Z,100910.41
2022-08-23T20:04:17.114Z,100908.78
2022-08-23T20:06:43.645Z,100901.63
2022-08-23T20:09:11.215Z,100901.91
2022-08-23T20:11:38.215Z,100907.75
2022-08-23T20:14:05.931Z,100910.00
2022-08-23T20:16:32.967Z,100908.38
2022-08-23T20:18:59.752Z,100915.81
2022-08-23T20:21:27.329Z,100911.69
2022-08-23T20:24:00.988Z,100918.31
2022-08-23T20:26:33.920Z,100920.00
2022-08-23T20:29:01.985Z,100912.25
2022-08-23T20:31:32.469Z,100918.91
2022-08-23T20:33:59.856Z,100919.19
2022-08-23T20:36:29.996Z,100925.56
2022-08-23T20:39:00.270Z,100917.25
2022-08-23T20:41:29.011Z,100931.63
2022-08-23T20:43:56.814Z,100934.41
2022-08-23T20:46:23.525Z,100926.09
2022-08-23T20:48:51.549Z,100932.19
2022-08-23T20:51:19.683Z,100932.75
2022-08-23T20:53:46.108Z,100927.72
2022-08-23T20:56:12.685Z,100912.81
2022-08-23T20:58:39.192Z,100922.75
2022-08-23T21:01:06.153Z,100920.78
2022-08-23T21:03:36.785Z,100924.13
2022-08-23T21:06:16.657Z,100930.19
2022-08-23T21:08:47.819Z,100923.84
2022-08-23T21:11:15.338Z,100918.03
2022-08-23T21:13:44.065Z,100927.97
2022-08-23T21:16:12.013Z,100935.97
2022-08-23T21:18:38.551Z,100939.28
2022-08-23T21:21:05.070Z,100945.63
2022-08-23T21:23:31.618Z,100942.53
2022-08-23T21:25:58.637Z,100950.28
2022-08-23T21:28:25.884Z,100948.06
2022-08-23T21:30:52.533Z,100952.19
2022-08-23T21:33:21.860Z,100954.34
2022-08-23T21:35:48.970Z,100948.28
2022-08-23T21:38:15.783Z,100947.44
2022-08-23T21:40:43.356Z,100947.72
2022-08-23T21:43:09.846Z,100954.59
2022-08-23T21:45:36.288Z,100949.38
2022-08-23T21:48:08.128Z,100951.28
2022-08-23T21:50:34.541Z,100950.44
2022-08-23T21:53:01.605Z,100947.16
2022-08-23T21:55:36.026Z,100954.84
2022-08-23T21:58:03.311Z,100950.13
2022-08-23T22:00:29.834Z,100951.75
2022-08-23T22:02:56.435Z,100942.38
2022-08-23T22:05:23.181Z,100949.53
2022-08-23T22:07:50.017Z,100951.19
2022-08-23T22:10:16.444Z,100948.97
2022-08-23T22:12:43.270Z,100948.66
2022-08-23T22:15:10.424Z,100947.53
2022-08-23T22:17:37.435Z,100954.41
2022-08-23T22:20:06.599Z,100953.84
2022-08-23T22:22:33.483Z,100948.88
2022-08-23T22:25:01.306Z,100952.72
2022-08-23T22:27:28.363Z,100944.16
2022-08-23T22:29:55.510Z,100949.91
2022-08-23T22:32:22.840Z,100944.91
2022-08-23T22:34:49.378Z,100948.22
2022-08-23T22:37:16.132Z,100949.56
2022-08-23T22:39:42.638Z,100951.47
2022-08-23T22:42:09.889Z,100955.59
2022-08-23T22:44:36.602Z,100961.06
2022-08-23T22:47:03.087Z,100954.44
2022-08-23T22:49:30.061Z,100944.75
2022-08-23T22:51:57.592Z,100964.56
2022-08-23T22:54:25.036Z,100959.88
2022-08-23T22:56:53.225Z,100966.72
2022-08-23T22:59:22.605Z,100962.56
2022-08-23T23:01:56.266Z,100976.88
2022-08-23T23:04:26.354Z,100967.22
2022-08-23T23:06:54.085Z,100975.16
2022-08-23T23:09:20.673Z,100972.13
2022-08-23T23:11:47.268Z,100969.31
2022-08-23T23:14:16.121Z,100975.34
2022-08-23T23:16:43.495Z,100975.28
2022-08-23T23:19:28.959Z,100973.28
2022-08-23T23:21:57.294Z,100972.16
2022-08-23T23:24:28.667Z,100977.34
2022-08-23T23:26:55.775Z,100986.38
2022-08-23T23:29:22.865Z,100982.22
2022-08-23T23:31:49.497Z,100974.75
2022-08-23T23:34:16.113Z,100982.44
2022-08-23T23:36:43.044Z,100977.47
2022-08-23T23:39:14.347Z,100982.97
2022-08-23T23:41:41.024Z,100980.75
2022-08-23T23:44:07.561Z,100985.66
2022-08-23T23:46:35.037Z,100980.41
2022-08-23T23:49:01.486Z,100980.69
2022-08-23T23:51:30.142Z,100982.03
2022-08-23T23:53:58.037Z,100977.88
2022-08-23T23:56:27.362Z,100969.84
2022-08-23T23:58:54.686Z,100976.47
